sensor_id;sensor_type;location;lat;lon;timestamp;temperature;humidity
28087;DHT22;15392;48.912;8.380;2024-03-23T00:53:04;18.50;48.80
28087;DHT22;15392;48.912;8.380;2024-03-23T00:55:50;18.50;48.70
28087;DHT22;15392;48.912;8.380;2024-03-23T00:58:36;18.40;48.80
28087;DHT22;15392;48.912;8.380;2024-03-23T01:01:22;18.40;48.80
28087;DHT22;15392;48.912;8.380;2024-03-23T01:04:08;18.40;48.80
28087;DHT22;15392;48.912;8.380;2024-03-23T01:06:54;18.40;48.70
28087;DHT22;15392;48.912;8.380;2024-03-23T01:09:40;18.40;48.60
28087;DHT22;15392;48.912;8.380;2024-03-23T01:12:26;18.30;48.60
28087;DHT22;15392;48.912;8.380;2024-03-23T01:15:12;18.30;48.60
28087;DHT22;15392;48.912;8.380;2024-03-23T01:17:58;18.30;48.50
28087;DHT22;15392;48.912;8.380;2024-03-23T01:20:44;18.30;48.40
28087;DHT22;15392;48.912;8.380;2024-03-23T01:23:31;18.20;48.30
28087;DHT22;15392;48.912;8.380;2024-03-23T01:26:17;18.20;48.30
28087;DHT22;15392;48.912;8.380;2024-03-23T01:29:03;18.20;48.30
28087;DHT22;15392;48.912;8.380;2024-03-23T01:31:49;18.20;48.30
28087;DHT22;15392;48.912;8.380;2024-03-23T01:34:35;18.20;48.30
28087;DHT22;15392;48.912;8.380;2024-03-23T01:37:21;18.10;48.90
28087;DHT22;15392;48.912;8.380;2024-03-23T01:40:07;18.10;48.20
28087;DHT22;15392;48.912;8.380;2024-03-23T01:43:07;18.10;48.20
28087;DHT22;15392;48.912;8.380;2024-03-23T01:45:53;18.10;48.10
28087;DHT22;15392;48.912;8.380;2024-03-23T01:48:39;18.10;48.10
28087;DHT22;15392;48.912;8.380;2024-03-23T01:51:27;18.10;48.20
28087;DHT22;15392;48.912;8.380;2024-03-23T01:54:13;18.10;48.20
28087;DHT22;15392;48.912;8.380;2024-03-23T01:56:59;18.10;48.20
28087;DHT22;15392;48.912;8.380;2024-03-23T01:59:45;18.10;48.20
28087;DHT22;15392;48.912;8.380;2024-03-23T02:02:31;18.10;48.20
28087;DHT22;15392;48.912;8.380;2024-03-23T02:05:17;18.20;48.30
28087;DHT22;15392;48.912;8.380;2024-03-23T02:08:04;18.20;48.30
28087;DHT22;15392;48.912;8.380;2024-03-23T02:10:50;18.20;48.20
28087;DHT22;15392;48.912;8.380;2024-03-23T02:13:36;18.20;48.30
28087;DHT22;15392;48.912;8.380;2024-03-23T02:16:22;18.30;48.30
28087;DHT22;15392;48.912;8.380;2024-03-23T02:19:09;18.20;48.30
28087;DHT22;15392;48.912;8.380;2024-03-23T02:21:55;18.30;48.40
28087;DHT22;15392;48.912;8.380;2024-03-23T02:24:40;18.30;48.30
28087;DHT22;15392;48.912;8.380;2024-03-23T02:27:26;18.30;48.30
28087;DHT22;15392;48.912;8.380;2024-03-23T02:30:13;18.30;48.30
28087;DHT22;15392;48.912;8.380;2024-03-23T02:32:59;18.30;48.30
28087;DHT22;15392;48.912;8.380;2024-03-23T02:35:45;18.30;48.10
28087;DHT22;15392;48.912;8.380;2024-03-23T02:38:31;18.30;48.20
28087;DHT22;15392;48.912;8.380;2024-03-23T02:41:17;18.30;48.20
28087;DHT22;15392;48.912;8.380;2024-03-23T02:44:08;18.30;48.30
28087;DHT22;15392;48.912;8.380;2024-03-23T02:46:57;18.30;48.10
28087;DHT22;15392;48.912;8.380;2024-03-23T02:49:43;18.30;48.20
28087;DHT22;15392;48.912;8.380;2024-03-23T02:52:29;18.40;48.30
28087;DHT22;15392;48.912;8.380;2024-03-23T02:55:15;18.30;48.30
28087;DHT22;15392;48.912;8.380;2024-03-23T02:58:02;18.40;48.30
28087;DHT22;15392;48.912;8.380;2024-03-23T03:00:48;18.40;48.30
28087;DHT22;15392;48.912;8.380;2024-03-23T03:03:34;18.40;48.30
28087;DHT22;15392;48.912;8.380;2024-03-23T03:06:24;18.40;48.20
28087;DHT22;15392;48.912;8.380;2024-03-23T03:09:10;18.40;48.30
28087;DHT22;15392;48.912;8.380;2024-03-23T03:11:56;18.40;48.30
28087;DHT22;15392;48.912;8.380;2024-03-23T03:14:42;18.30;48.20
28087;DHT22;15392;48.912;8.380;2024-03-23T03:17:28;18.30;48.20
28087;DHT22;15392;48.912;8.380;2024-03-23T03:20:14;18.30;48.10
28087;DHT22;15392;48.912;8.380;2024-03-23T03:23:01;18.30;48.20
28087;DHT22;15392;48.912;8.380;2024-03-23T03:25:47;18.20;48.20
28087;DHT22;15392;48.912;8.380;2024-03-23T03:28:33;18.20;48.30
28087;DHT22;15392;48.912;8.380;2024-03-23T03:31:20;18.20;48.40
28087;DHT22;15392;48.912;8.380;2024-03-23T03:34:06;18.20;48.40
28087;DHT22;15392;48.912;8.380;2024-03-23T03:36:52;18.20;48.50
28087;DHT22;15392;48.912;8.380;2024-03-23T03:39:38;18.20;48.50
28087;DHT22;15392;48.912;8.380;2024-03-23T03:42:24;18.10;49.10
28087;DHT22;15392;48.912;8.380;2024-03-23T03:45:10;18.10;48.50
28087;DHT22;15392;48.912;8.380;2024-03-23T03:47:56;18.10;48.60
28087;DHT22;15392;48.912;8.380;2024-03-23T03:50:42;18.10;48.80
28087;DHT22;15392;48.912;8.380;2024-03-23T03:53:28;18.10;49.00
28087;DHT22;15392;48.912;8.380;2024-03-23T03:56:14;18.10;49.00
28087;DHT22;15392;48.912;8.380;2024-03-23T03:59:01;18.00;48.90
28087;DHT22;15392;48.912;8.380;2024-03-23T04:01:46;18.00;48.80
28087;DHT22;15392;48.912;8.380;2024-03-23T04:04:32;18.00;48.70
28087;DHT22;15392;48.912;8.380;2024-03-23T04:07:18;18.00;48.70
28087;DHT22;15392;48.912;8.380;2024-03-23T04:10:06;18.00;48.80
28087;DHT22;15392;48.912;8.380;2024-03-23T04:12:53;17.90;48.70
28087;DHT22;15392;48.912;8.380;2024-03-23T04:15:40;17.90;48.70
28087;DHT22;15392;48.912;8.380;2024-03-23T04:18:26;17.90;48.60
28087;DHT22;15392;48.912;8.380;2024-03-23T04:21:12;17.90;48.60
28087;DHT22;15392;48.912;8.380;2024-03-23T04:23:58;17.90;48.60
28087;DHT22;15392;48.912;8.380;2024-03-23T04:26:44;17.80;48.60
28087;DHT22;15392;48.912;8.380;2024-03-23T04:29:31;17.80;48.60
28087;DHT22;15392;48.912;8.380;2024-03-23T04:32:18;17.80;48.70
28087;DHT22;15392;48.912;8.380;2024-03-23T04:35:04;17.70;48.50
28087;DHT22;15392;48.912;8.380;2024-03-23T04:37:57;17.70;48.60
28087;DHT22;15392;48.912;8.380;2024-03-23T04:40:44;17.70;48.60
28087;DHT22;15392;48.912;8.380;2024-03-23T04:43:30;17.70;48.70
28087;DHT22;15392;48.912;8.380;2024-03-23T04:46:16;17.60;48.80
28087;DHT22;15392;48.912;8.380;2024-03-23T04:49:02;17.50;48.80
28087;DHT22;15392;48.912;8.380;2024-03-23T04:51:50;17.50;49.10
28087;DHT22;15392;48.912;8.380;2024-03-23T04:54:36;17.50;49.00
28087;DHT22;15392;48.912;8.380;2024-03-23T04:57:22;17.40;49.10
28087;DHT22;15392;48.912;8.380;2024-03-23T05:00:08;17.40;49.30
28087;DHT22;15392;48.912;8.380;2024-03-23T05:03:02;17.40;49.30
28087;DHT22;15392;48.912;8.380;2024-03-23T05:05:50;17.30;49.20
28087;DHT22;15392;48.912;8.380;2024-03-23T05:08:36;17.30;49.40
28087;DHT22;15392;48.912;8.380;2024-03-23T05:11:22;17.20;49.30
28087;DHT22;15392;48.912;8.380;2024-03-23T05:14:08;17.20;49.20
28087;DHT22;15392;48.912;8.380;2024-03-23T05:16:54;17.10;49.10
28087;DHT22;15392;48.912;8.380;2024-03-23T05:19:41;17.10;49.10
28087;DHT22;15392;48.912;8.380;2024-03-23T05:22:27;17.10;49.00
28087;DHT22;15392;48.912;8.380;2024-03-23T05:25:13;17.00;48.90
28087;DHT22;15392;48.912;8.380;2024-03-23T05:27:59;17.00;48.80
28087;DHT22;15392;48.912;8.380;2024-03-23T05:30:52;16.90;48.50
28087;DHT22;15392;48.912;8.380;2024-03-23T05:33:39;16.90;48.40
28087;DHT22;15392;48.912;8.380;2024-03-23T05:36:25;16.90;48.00
28087;DHT22;15392;48.912;8.380;2024-03-23T05:39:11;16.80;47.80
28087;DHT22;15392;48.912;8.380;2024-03-23T05:41:57;16.70;47.90
28087;DHT22;15392;48.912;8.380;2024-03-23T05:44:47;16.70;48.00
28087;DHT22;15392;48.912;8.380;2024-03-23T05:47:33;16.60;48.00
28087;DHT22;15392;48.912;8.380;2024-03-23T05:50:19;16.60;47.80
28087;DHT22;15392;48.912;8.380;2024-03-23T05:53:05;16.50;47.90
28087;DHT22;15392;48.912;8.380;2024-03-23T05:55:51;16.50;48.00
28087;DHT22;15392;48.912;8.380;2024-03-23T05:58:46;16.40;48.00
28087;DHT22;15392;48.912;8.380;2024-03-23T06:01:32;16.30;47.90
28087;DHT22;15392;48.912;8.380;2024-03-23T06:04:18;16.30;48.10
28087;DHT22;15392;48.912;8.380;2024-03-23T06:07:04;16.20;48.10
28087;DHT22;15392;48.912;8.380;2024-03-23T06:09:59;16.20;48.20
28087;DHT22;15392;48.912;8.380;2024-03-23T06:12:48;16.10;48.30
28087;DHT22;15392;48.912;8.380;2024-03-23T06:15:36;16.10;48.50
28087;DHT22;15392;48.912;8.380;2024-03-23T06:18:23;16.00;48.50
28087;DHT22;15392;48.912;8.380;2024-03-23T06:21:14;16.00;48.60
28087;DHT22;15392;48.912;8.380;2024-03-23T06:24:00;15.90;48.70
28087;DHT22;15392;48.912;8.380;2024-03-23T06:26:46;15.90;48.80
28087;DHT22;15392;48.912;8.380;2024-03-23T06:29:32;15.80;48.80
28087;DHT22;15392;48.912;8.380;2024-03-23T06:32:18;15.80;49.00
28087;DHT22;15392;48.912;8.380;2024-03-23T06:35:04;15.80;49.10
28087;DHT22;15392;48.912;8.380;2024-03-23T06:37:54;15.70;49.00
28087;DHT22;15392;48.912;8.380;2024-03-23T06:40:40;15.70;49.00
28087;DHT22;15392;48.912;8.380;2024-03-23T06:43:26;15.60;49.10
28087;DHT22;15392;48.912;8.380;2024-03-23T06:46:12;15.60;49.10
28087;DHT22;15392;48.912;8.380;2024-03-23T06:48:57;15.60;49.20
28087;DHT22;15392;48.912;8.380;2024-03-23T06:51:45;15.50;49.10
28087;DHT22;15392;48.912;8.380;2024-03-23T06:54:31;15.60;49.10
28087;DHT22;15392;48.912;8.380;2024-03-23T06:57:17;15.50;49.00
28087;DHT22;15392;48.912;8.380;2024-03-23T07:00:03;15.40;49.00
28087;DHT22;15392;48.912;8.380;2024-03-23T07:02:51;15.40;49.00
28087;DHT22;15392;48.912;8.380;2024-03-23T07:05:37;15.40;48.90
28087;DHT22;15392;48.912;8.380;2024-03-23T07:08:23;15.40;49.00
28087;DHT22;15392;48.912;8.380;2024-03-23T07:11:09;15.40;49.00
28087;DHT22;15392;48.912;8.380;2024-03-23T07:13:55;15.30;49.00
28087;DHT22;15392;48.912;8.380;2024-03-23T07:16:41;15.30;49.50
28087;DHT22;15392;48.912;8.380;2024-03-23T07:19:27;15.30;50.20
28087;DHT22;15392;48.912;8.380;2024-03-23T07:22:14;15.30;49.90
28087;DHT22;15392;48.912;8.380;2024-03-23T07:25:01;15.20;49.80
28087;DHT22;15392;48.912;8.380;2024-03-23T07:27:47;15.20;49.80
28087;DHT22;15392;48.912;8.380;2024-03-23T07:30:33;15.20;49.60
28087;DHT22;15392;48.912;8.380;2024-03-23T07:33:19;15.20;49.60
28087;DHT22;15392;48.912;8.380;2024-03-23T07:36:05;15.20;50.20
28087;DHT22;15392;48.912;8.380;2024-03-23T07:38:52;15.20;49.50
28087;DHT22;15392;48.912;8.380;2024-03-23T07:41:39;15.20;49.40
28087;DHT22;15392;48.912;8.380;2024-03-23T07:44:25;15.20;49.60
28087;DHT22;15392;48.912;8.380;2024-03-23T07:47:11;15.20;49.40
28087;DHT22;15392;48.912;8.380;2024-03-23T07:49:57;15.20;49.40
28087;DHT22;15392;48.912;8.380;2024-03-23T07:52:44;15.20;49.40
28087;DHT22;15392;48.912;8.380;2024-03-23T07:55:30;15.20;49.30
28087;DHT22;15392;48.912;8.380;2024-03-23T07:58:16;15.10;49.30
28087;DHT22;15392;48.912;8.380;2024-03-23T08:01:12;15.20;49.20
28087;DHT22;15392;48.912;8.380;2024-03-23T08:04:00;15.20;49.10
28087;DHT22;15392;48.912;8.380;2024-03-23T08:06:46;15.20;49.00
28087;DHT22;15392;48.912;8.380;2024-03-23T08:09:32;15.20;49.00
28087;DHT22;15392;48.912;8.380;2024-03-23T08:12:18;15.20;48.40
28087;DHT22;15392;48.912;8.380;2024-03-23T08:15:05;15.20;48.50
28087;DHT22;15392;48.912;8.380;2024-03-23T08:17:51;15.20;48.40
28087;DHT22;15392;48.912;8.380;2024-03-23T08:20:37;15.20;48.40
28087;DHT22;15392;48.912;8.380;2024-03-23T08:23:34;15.20;48.30
28087;DHT22;15392;48.912;8.380;2024-03-23T08:26:23;15.20;48.20
28087;DHT22;15392;48.912;8.380;2024-03-23T08:29:10;15.20;48.30
28087;DHT22;15392;48.912;8.380;2024-03-23T08:31:56;15.20;48.80
28087;DHT22;15392;48.912;8.380;2024-03-23T08:34:42;15.30;48.50
28087;DHT22;15392;48.912;8.380;2024-03-23T08:37:28;15.40;48.20
28087;DHT22;15392;48.912;8.380;2024-03-23T08:40:14;15.50;48.20
28087;DHT22;15392;48.912;8.380;2024-03-23T08:43:00;15.60;48.00
28087;DHT22;15392;48.912;8.380;2024-03-23T08:45:46;15.70;47.80
28087;DHT22;15392;48.912;8.380;2024-03-23T08:48:32;15.80;47.50
28087;DHT22;15392;48.912;8.380;2024-03-23T08:51:20;15.80;47.30
28087;DHT22;15392;48.912;8.380;2024-03-23T08:54:06;16.00;47.20
28087;DHT22;15392;48.912;8.380;2024-03-23T08:56:51;16.10;47.00
28087;DHT22;15392;48.912;8.380;2024-03-23T08:59:38;16.20;46.10
28087;DHT22;15392;48.912;8.380;2024-03-23T09:02:23;16.30;46.40
28087;DHT22;15392;48.912;8.380;2024-03-23T09:05:10;16.40;45.80
28087;DHT22;15392;48.912;8.380;2024-03-23T09:07:57;16.50;46.00
28087;DHT22;15392;48.912;8.380;2024-03-23T09:10:43;16.50;45.80
28087;DHT22;15392;48.912;8.380;2024-03-23T09:13:30;16.70;46.40
28087;DHT22;15392;48.912;8.380;2024-03-23T09:16:16;17.00;47.20
28087;DHT22;15392;48.912;8.380;2024-03-23T09:19:02;17.40;47.50
28087;DHT22;15392;48.912;8.380;2024-03-23T09:21:49;17.90;47.30
28087;DHT22;15392;48.912;8.380;2024-03-23T09:24:35;18.40;46.60
28087;DHT22;15392;48.912;8.380;2024-03-23T09:27:22;18.90;44.90
28087;DHT22;15392;48.912;8.380;2024-03-23T09:30:08;19.30;45.30
28087;DHT22;15392;48.912;8.380;2024-03-23T09:32:55;19.50;44.70
28087;DHT22;15392;48.912;8.380;2024-03-23T09:35:42;19.60;42.80
28087;DHT22;15392;48.912;8.380;2024-03-23T09:38:30;19.60;43.30
28087;DHT22;15392;48.912;8.380;2024-03-23T09:41:16;19.50;42.60
28087;DHT22;15392;48.912;8.380;2024-03-23T09:44:02;19.30;42.50
28087;DHT22;15392;48.912;8.380;2024-03-23T09:46:49;19.20;41.40
28087;DHT22;15392;48.912;8.380;2024-03-23T09:49:37;19.00;42.60
28087;DHT22;15392;48.912;8.380;2024-03-23T09:52:24;18.80;42.40
28087;DHT22;15392;48.912;8.380;2024-03-23T09:55:10;18.50;41.90
28087;DHT22;15392;48.912;8.380;2024-03-23T09:57:56;18.30;43.40
28087;DHT22;15392;48.912;8.380;2024-03-23T10:00:42;18.10;44.00
28087;DHT22;15392;48.912;8.380;2024-03-23T10:03:28;18.00;44.60
28087;DHT22;15392;48.912;8.380;2024-03-23T10:06:16;17.70;44.70
28087;DHT22;15392;48.912;8.380;2024-03-23T10:09:16;17.60;45.00
28087;DHT22;15392;48.912;8.380;2024-03-23T10:12:11;17.30;45.20
28087;DHT22;15392;48.912;8.380;2024-03-23T10:14:59;17.10;45.50
28087;DHT22;15392;48.912;8.380;2024-03-23T10:17:45;17.00;45.70
28087;DHT22;15392;48.912;8.380;2024-03-23T10:20:32;16.80;46.00
28087;DHT22;15392;48.912;8.380;2024-03-23T10:23:18;16.70;46.10
28087;DHT22;15392;48.912;8.380;2024-03-23T10:26:13;16.50;46.00
28087;DHT22;15392;48.912;8.380;2024-03-23T10:29:02;16.30;46.10
28087;DHT22;15392;48.912;8.380;2024-03-23T10:31:53;16.20;46.40
28087;DHT22;15392;48.912;8.380;2024-03-23T10:34:44;16.00;46.60
28087;DHT22;15392;48.912;8.380;2024-03-23T10:37:31;15.90;46.30
28087;DHT22;15392;48.912;8.380;2024-03-23T10:40:18;15.80;46.70
28087;DHT22;15392;48.912;8.380;2024-03-23T10:43:04;15.70;46.80
28087;DHT22;15392;48.912;8.380;2024-03-23T10:45:50;15.50;47.00
28087;DHT22;15392;48.912;8.380;2024-03-23T10:48:36;15.40;47.30
28087;DHT22;15392;48.912;8.380;2024-03-23T10:51:22;15.40;47.50
28087;DHT22;15392;48.912;8.380;2024-03-23T10:54:08;15.40;48.00
28087;DHT22;15392;48.912;8.380;2024-03-23T10:57:17;15.40;48.10
28087;DHT22;15392;48.912;8.380;2024-03-23T11:00:04;15.50;48.20
28087;DHT22;15392;48.912;8.380;2024-03-23T11:02:51;15.60;48.60
28087;DHT22;15392;48.912;8.380;2024-03-23T11:05:46;15.80;48.80
28087;DHT22;15392;48.912;8.380;2024-03-23T11:08:35;16.00;48.90
28087;DHT22;15392;48.912;8.380;2024-03-23T11:11:22;16.30;48.90
28087;DHT22;15392;48.912;8.380;2024-03-23T11:14:22;16.50;48.30
28087;DHT22;15392;48.912;8.380;2024-03-23T11:17:09;16.70;47.50
28087;DHT22;15392;48.912;8.380;2024-03-23T11:19:57;16.90;47.50
28087;DHT22;15392;48.912;8.380;2024-03-23T11:22:45;17.00;47.30
28087;DHT22;15392;48.912;8.380;2024-03-23T11:25:33;17.10;46.80
28087;DHT22;15392;48.912;8.380;2024-03-23T11:28:19;17.20;46.30
28087;DHT22;15392;48.912;8.380;2024-03-23T11:31:09;17.20;45.90
28087;DHT22;15392;48.912;8.380;2024-03-23T11:34:04;17.20;45.20
28087;DHT22;15392;48.912;8.380;2024-03-23T11:37:04;17.10;45.30
28087;DHT22;15392;48.912;8.380;2024-03-23T11:39:50;17.00;44.70
28087;DHT22;15392;48.912;8.380;2024-03-23T11:42:36;17.00;45.10
28087;DHT22;15392;48.912;8.380;2024-03-23T11:45:22;16.90;44.80
28087;DHT22;15392;48.912;8.380;2024-03-23T11:48:13;16.80;44.90
28087;DHT22;15392;48.912;8.380;2024-03-23T11:50:59;16.80;44.80
28087;DHT22;15392;48.912;8.380;2024-03-23T11:53:45;16.70;45.50
28087;DHT22;15392;48.912;8.380;2024-03-23T11:56:31;16.70;45.80
28087;DHT22;15392;48.912;8.380;2024-03-23T12:02:19;16.70;45.80
28087;DHT22;15392;48.912;8.380;2024-03-23T12:05:16;16.80;46.00
28087;DHT22;15392;48.912;8.380;2024-03-23T12:08:41;16.80;45.60
28087;DHT22;15392;48.912;8.380;2024-03-23T12:11:27;16.80;44.50
28087;DHT22;15392;48.912;8.380;2024-03-23T12:14:15;16.90;45.20
28087;DHT22;15392;48.912;8.380;2024-03-23T12:17:14;16.80;45.30
28087;DHT22;15392;48.912;8.380;2024-03-23T12:20:01;16.90;45.70
28087;DHT22;15392;48.912;8.380;2024-03-23T12:22:48;16.90;45.50
28087;DHT22;15392;48.912;8.380;2024-03-23T12:25:35;17.00;45.40
28087;DHT22;15392;48.912;8.380;2024-03-23T12:28:22;17.00;45.50
28087;DHT22;15392;48.912;8.380;2024-03-23T12:31:08;17.00;45.30
28087;DHT22;15392;48.912;8.380;2024-03-23T12:33:54;17.00;45.60
28087;DHT22;15392;48.912;8.380;2024-03-23T12:36:40;17.10;45.80
28087;DHT22;15392;48.912;8.380;2024-03-23T12:39:26;17.20;44.80
28087;DHT22;15392;48.912;8.380;2024-03-23T12:42:12;17.20;45.50
28087;DHT22;15392;48.912;8.380;2024-03-23T12:44:58;17.30;44.70
28087;DHT22;15392;48.912;8.380;2024-03-23T12:47:44;17.30;44.80
28087;DHT22;15392;48.912;8.380;2024-03-23T12:50:30;17.40;43.50
28087;DHT22;15392;48.912;8.380;2024-03-23T12:53:16;17.40;43.10
28087;DHT22;15392;48.912;8.380;2024-03-23T12:56:02;17.40;43.90
28087;DHT22;15392;48.912;8.380;2024-03-23T12:58:49;17.30;44.40
28087;DHT22;15392;48.912;8.380;2024-03-23T13:01:37;17.30;44.40
28087;DHT22;15392;48.912;8.380;2024-03-23T13:04:23;17.20;43.70
28087;DHT22;15392;48.912;8.380;2024-03-23T13:07:09;17.20;44.30
28087;DHT22;15392;48.912;8.380;2024-03-23T13:09:55;17.10;43.90
28087;DHT22;15392;48.912;8.380;2024-03-23T13:12:42;17.00;44.40
28087;DHT22;15392;48.912;8.380;2024-03-23T13:15:28;17.00;44.60
28087;DHT22;15392;48.912;8.380;2024-03-23T13:18:14;16.90;44.10
28087;DHT22;15392;48.912;8.380;2024-03-23T13:21:00;16.80;44.10
28087;DHT22;15392;48.912;8.380;2024-03-23T13:23:47;16.70;44.20
28087;DHT22;15392;48.912;8.380;2024-03-23T13:26:34;16.70;44.60
28087;DHT22;15392;48.912;8.380;2024-03-23T13:29:20;16.70;44.60
28087;DHT22;15392;48.912;8.380;2024-03-23T13:32:06;16.70;44.60
28087;DHT22;15392;48.912;8.380;2024-03-23T13:34:53;16.60;44.40
28087;DHT22;15392;48.912;8.380;2024-03-23T13:37:39;16.50;44.30
28087;DHT22;15392;48.912;8.380;2024-03-23T13:40:25;16.50;44.70
28087;DHT22;15392;48.912;8.380;2024-03-23T13:43:11;16.40;44.20
28087;DHT22;15392;48.912;8.380;2024-03-23T13:45:58;16.30;44.50
28087;DHT22;15392;48.912;8.380;2024-03-23T13:48:44;16.20;44.60
28087;DHT22;15392;48.912;8.380;2024-03-23T13:51:30;16.20;44.70
28087;DHT22;15392;48.912;8.380;2024-03-23T13:54:17;16.10;44.60
28087;DHT22;15392;48.912;8.380;2024-03-23T13:57:03;16.10;44.60
28087;DHT22;15392;48.912;8.380;2024-03-23T13:59:49;16.10;44.50
28087;DHT22;15392;48.912;8.380;2024-03-23T14:02:35;16.00;44.70
28087;DHT22;15392;48.912;8.380;2024-03-23T14:05:21;16.00;44.50
28087;DHT22;15392;48.912;8.380;2024-03-23T14:08:09;16.00;43.80
28087;DHT22;15392;48.912;8.380;2024-03-23T14:10:55;16.00;44.40
28087;DHT22;15392;48.912;8.380;2024-03-23T14:13:43;16.00;43.80
28087;DHT22;15392;48.912;8.380;2024-03-23T14:16:30;16.00;45.40
28087;DHT22;15392;48.912;8.380;2024-03-23T14:19:16;15.90;44.30
28087;DHT22;15392;48.912;8.380;2024-03-23T14:22:02;15.90;45.20
28087;DHT22;15392;48.912;8.380;2024-03-23T14:24:48;15.80;45.70
28087;DHT22;15392;48.912;8.380;2024-03-23T14:27:34;15.70;46.00
28087;DHT22;15392;48.912;8.380;2024-03-23T14:30:23;15.70;46.10
28087;DHT22;15392;48.912;8.380;2024-03-23T14:33:09;15.70;46.30
28087;DHT22;15392;48.912;8.380;2024-03-23T14:35:55;15.60;46.40
28087;DHT22;15392;48.912;8.380;2024-03-23T14:38:49;15.50;46.20
28087;DHT22;15392;48.912;8.380;2024-03-23T14:41:35;15.50;46.40
28087;DHT22;15392;48.912;8.380;2024-03-23T14:44:21;15.40;46.40
28087;DHT22;15392;48.912;8.380;2024-03-23T14:47:08;15.40;46.20
28087;DHT22;15392;48.912;8.380;2024-03-23T14:49:54;15.40;46.40
28087;DHT22;15392;48.912;8.380;2024-03-23T14:52:40;15.30;46.30
28087;DHT22;15392;48.912;8.380;2024-03-23T14:55:26;15.30;46.30
28087;DHT22;15392;48.912;8.380;2024-03-23T14:58:12;15.20;45.90
28087;DHT22;15392;48.912;8.380;2024-03-23T15:01:05;15.10;45.90
28087;DHT22;15392;48.912;8.380;2024-03-23T15:03:55;15.10;45.90
28087;DHT22;15392;48.912;8.380;2024-03-23T15:06:41;15.10;46.10
28087;DHT22;15392;48.912;8.380;2024-03-23T15:09:28;15.10;46.20
28087;DHT22;15392;48.912;8.380;2024-03-23T15:12:14;15.00;46.50
28087;DHT22;15392;48.912;8.380;2024-03-23T15:15:00;15.00;46.50
28087;DHT22;15392;48.912;8.380;2024-03-23T15:17:46;15.00;46.50
28087;DHT22;15392;48.912;8.380;2024-03-23T15:20:32;14.90;46.30
28087;DHT22;15392;48.912;8.380;2024-03-23T15:23:21;14.90;46.30
28087;DHT22;15392;48.912;8.380;2024-03-23T15:26:08;14.90;46.50
28087;DHT22;15392;48.912;8.380;2024-03-23T15:28:54;14.90;46.80
28087;DHT22;15392;48.912;8.380;2024-03-23T15:31:43;14.90;46.70
28087;DHT22;15392;48.912;8.380;2024-03-23T15:34:29;14.90;46.60
28087;DHT22;15392;48.912;8.380;2024-03-23T15:37:15;14.80;46.60
28087;DHT22;15392;48.912;8.380;2024-03-23T15:40:01;14.80;46.40
28087;DHT22;15392;48.912;8.380;2024-03-23T15:42:48;14.80;46.70
28087;DHT22;15392;48.912;8.380;2024-03-23T15:45:34;14.80;46.80
28087;DHT22;15392;48.912;8.380;2024-03-23T15:48:20;14.80;46.80
28087;DHT22;15392;48.912;8.380;2024-03-23T15:51:07;14.70;47.20
28087;DHT22;15392;48.912;8.380;2024-03-23T15:53:53;14.60;47.60
28087;DHT22;15392;48.912;8.380;2024-03-23T15:56:43;14.60;48.00
28087;DHT22;15392;48.912;8.380;2024-03-23T15:59:29;14.50;47.50
28087;DHT22;15392;48.912;8.380;2024-03-23T16:02:15;14.50;46.90
28087;DHT22;15392;48.912;8.380;2024-03-23T16:05:01;14.50;47.10
28087;DHT22;15392;48.912;8.380;2024-03-23T16:07:49;14.40;47.10
28087;DHT22;15392;48.912;8.380;2024-03-23T16:10:35;14.40;46.90
28087;DHT22;15392;48.912;8.380;2024-03-23T16:13:21;14.40;46.70
28087;DHT22;15392;48.912;8.380;2024-03-23T16:16:07;14.30;46.60
28087;DHT22;15392;48.912;8.380;2024-03-23T16:18:54;14.30;46.60
28087;DHT22;15392;48.912;8.380;2024-03-23T16:21:40;14.30;46.60
28087;DHT22;15392;48.912;8.380;2024-03-23T16:24:26;14.20;46.70
28087;DHT22;15392;48.912;8.380;2024-03-23T16:27:12;14.20;46.80
28087;DHT22;15392;48.912;8.380;2024-03-23T16:29:58;14.10;46.80
28087;DHT22;15392;48.912;8.380;2024-03-23T16:32:44;14.10;46.90
28087;DHT22;15392;48.912;8.380;2024-03-23T16:35:30;14.10;47.00
28087;DHT22;15392;48.912;8.380;2024-03-23T16:38:16;14.00;47.10
28087;DHT22;15392;48.912;8.380;2024-03-23T16:41:07;13.90;47.20
28087;DHT22;15392;48.912;8.380;2024-03-23T16:43:54;13.90;47.30
28087;DHT22;15392;48.912;8.380;2024-03-23T16:46:40;13.90;47.30
28087;DHT22;15392;48.912;8.380;2024-03-23T16:49:29;13.80;47.30
28087;DHT22;15392;48.912;8.380;2024-03-23T16:52:15;13.80;47.40
28087;DHT22;15392;48.912;8.380;2024-03-23T16:55:01;13.70;47.50
28087;DHT22;15392;48.912;8.380;2024-03-23T16:57:48;13.70;47.60
28087;DHT22;15392;48.912;8.380;2024-03-23T17:00:37;13.70;47.60
28087;DHT22;15392;48.912;8.380;2024-03-23T17:03:26;13.60;47.70
28087;DHT22;15392;48.912;8.380;2024-03-23T17:06:12;13.60;47.50
28087;DHT22;15392;48.912;8.380;2024-03-23T17:09:00;13.60;47.60
28087;DHT22;15392;48.912;8.380;2024-03-23T17:11:48;13.50;48.00
28087;DHT22;15392;48.912;8.380;2024-03-23T17:14:35;13.40;48.50
28087;DHT22;15392;48.912;8.380;2024-03-23T17:17:21;13.40;48.60
28087;DHT22;15392;48.912;8.380;2024-03-23T17:20:07;13.30;48.50
28087;DHT22;15392;48.912;8.380;2024-03-23T17:22:56;13.20;48.40
28087;DHT22;15392;48.912;8.380;2024-03-23T17:25:42;13.10;48.40
28087;DHT22;15392;48.912;8.380;2024-03-23T17:28:28;13.00;48.40
28087;DHT22;15392;48.912;8.380;2024-03-23T17:31:18;12.90;48.70
28087;DHT22;15392;48.912;8.380;2024-03-23T17:34:04;12.90;48.60
28087;DHT22;15392;48.912;8.380;2024-03-23T17:36:50;12.80;48.50
28087;DHT22;15392;48.912;8.380;2024-03-23T17:39:36;12.80;48.80
28087;DHT22;15392;48.912;8.380;2024-03-23T17:42:22;12.80;49.10
28087;DHT22;15392;48.912;8.380;2024-03-23T17:45:08;12.70;49.10
28087;DHT22;15392;48.912;8.380;2024-03-23T17:47:55;12.70;49.10
28087;DHT22;15392;48.912;8.380;2024-03-23T17:50:42;12.60;49.20
28087;DHT22;15392;48.912;8.380;2024-03-23T17:53:28;12.60;49.30
28087;DHT22;15392;48.912;8.380;2024-03-23T17:56:14;12.60;49.60
28087;DHT22;15392;48.912;8.380;2024-03-23T17:59:00;12.50;50.20
28087;DHT22;15392;48.912;8.380;2024-03-23T18:01:46;12.50;49.90
28087;DHT22;15392;48.912;8.380;2024-03-23T18:04:32;12.40;49.80
28087;DHT22;15392;48.912;8.380;2024-03-23T18:07:19;12.40;49.60
28087;DHT22;15392;48.912;8.380;2024-03-23T18:10:05;12.40;49.70
28087;DHT22;15392;48.912;8.380;2024-03-23T18:12:52;12.30;49.60
28087;DHT22;15392;48.912;8.380;2024-03-23T18:15:38;12.20;49.60
28087;DHT22;15392;48.912;8.380;2024-03-23T18:18:24;12.20;50.00
28087;DHT22;15392;48.912;8.380;2024-03-23T18:21:12;12.10;50.00
28087;DHT22;15392;48.912;8.380;2024-03-23T18:23:58;12.00;49.90
28087;DHT22;15392;48.912;8.380;2024-03-23T18:26:44;12.00;50.10
28087;DHT22;15392;48.912;8.380;2024-03-23T18:29:30;11.90;50.20